sensor_id;sensor_type;location;lat;lon;timestamp;P1;durP1;ratioP1;P2;durP2;ratioP2
52948;SDS011;38812;50.942;3.644;2022-10-14T00:00:18;26.13;;;18.42;;
52948;SDS011;38812;50.942;3.644;2022-10-14T00:02:44;24.80;;;18.63;;
52948;SDS011;38812;50.942;3.644;2022-10-14T00:05:09;26.77;;;18.75;;
52948;SDS011;38812;50.942;3.644;2022-10-14T00:07:35;23.65;;;18.10;;
52948;SDS011;38812;50.942;3.644;2022-10-14T00:10:01;28.20;;;18.42;;
52948;SDS011;38812;50.942;3.644;2022-10-14T00:12:28;21.42;;;17.60;;
52948;SDS011;38812;50.942;3.644;2022-10-14T00:14:54;23.25;;;17.80;;
52948;SDS011;38812;50.942;3.644;2022-10-14T00:17:20;28.00;;;18.98;;
52948;SDS011;38812;50.942;3.644;2022-10-14T00:19:45;25.00;;;18.95;;
52948;SDS011;38812;50.942;3.644;2022-10-14T00:22:11;25.52;;;18.85;;
52948;SDS011;38812;50.942;3.644;2022-10-14T00:24:36;24.35;;;18.40;;
52948;SDS011;38812;50.942;3.644;2022-10-14T00:27:02;29.52;;;19.42;;
52948;SDS011;38812;50.942;3.644;2022-10-14T00:29:27;26.80;;;19.80;;
52948;SDS011;38812;50.942;3.644;2022-10-14T00:31:52;27.35;;;19.30;;
52948;SDS011;38812;50.942;3.644;2022-10-14T00:34:18;30.27;;;19.20;;
52948;SDS011;38812;50.942;3.644;2022-10-14T00:36:43;27.25;;;19.50;;
52948;SDS011;38812;50.942;3.644;2022-10-14T00:39:09;28.48;;;20.27;;
52948;SDS011;38812;50.942;3.644;2022-10-14T00:41:35;25.67;;;19.77;;
52948;SDS011;38812;50.942;3.644;2022-10-14T00:46:55;28.83;;;20.08;;
52948;SDS011;38812;50.942;3.644;2022-10-14T00:49:28;26.67;;;18.75;;
52948;SDS011;38812;50.942;3.644;2022-10-14T00:52:01;27.77;;;19.75;;
52948;SDS011;38812;50.942;3.644;2022-10-14T00:54:33;28.63;;;20.35;;
52948;SDS011;38812;50.942;3.644;2022-10-14T00:57:02;32.30;;;21.35;;
52948;SDS011;38812;50.942;3.644;2022-10-14T00:59:28;29.35;;;20.52;;
52948;SDS011;38812;50.942;3.644;2022-10-14T01:01:53;26.95;;;20.45;;
52948;SDS011;38812;50.942;3.644;2022-10-14T01:04:19;29.52;;;21.15;;
52948;SDS011;38812;50.942;3.644;2022-10-14T01:06:48;32.97;;;21.55;;
52948;SDS011;38812;50.942;3.644;2022-10-14T01:09:35;32.85;;;22.13;;
52948;SDS011;38812;50.942;3.644;2022-10-14T01:18:23;30.67;;;22.13;;
52948;SDS011;38812;50.942;3.644;2022-10-14T01:26:00;35.10;;;23.40;;
52948;SDS011;38812;50.942;3.644;2022-10-14T01:31:19;32.95;;;22.88;;
52948;SDS011;38812;50.942;3.644;2022-10-14T01:33:49;32.08;;;23.30;;
52948;SDS011;38812;50.942;3.644;2022-10-14T01:36:23;34.80;;;24.00;;
52948;SDS011;38812;50.942;3.644;2022-10-14T01:41:49;35.03;;;24.60;;
52948;SDS011;38812;50.942;3.644;2022-10-14T01:44:19;35.92;;;24.02;;
52948;SDS011;38812;50.942;3.644;2022-10-14T01:46:50;36.05;;;24.67;;
52948;SDS011;38812;50.942;3.644;2022-10-14T01:49:25;37.42;;;25.45;;
52948;SDS011;38812;50.942;3.644;2022-10-14T01:51:56;38.55;;;25.80;;
52948;SDS011;38812;50.942;3.644;2022-10-14T01:54:29;35.55;;;24.38;;
52948;SDS011;38812;50.942;3.644;2022-10-14T01:56:58;39.40;;;25.85;;
52948;SDS011;38812;50.942;3.644;2022-10-14T01:59:29;34.95;;;24.27;;
52948;SDS011;38812;50.942;3.644;2022-10-14T02:01:56;40.38;;;26.13;;
52948;SDS011;38812;50.942;3.644;2022-10-14T02:04:22;36.30;;;26.42;;
52948;SDS011;38812;50.942;3.644;2022-10-14T02:06:59;37.63;;;24.83;;
52948;SDS011;38812;50.942;3.644;2022-10-14T02:09:39;37.33;;;26.15;;
52948;SDS011;38812;50.942;3.644;2022-10-14T02:15:41;39.40;;;25.83;;
52948;SDS011;38812;50.942;3.644;2022-10-14T02:18:05;35.35;;;24.70;;
52948;SDS011;38812;50.942;3.644;2022-10-14T02:20:47;38.08;;;25.02;;
52948;SDS011;38812;50.942;3.644;2022-10-14T02:23:19;39.63;;;27.55;;
52948;SDS011;38812;50.942;3.644;2022-10-14T02:25:50;40.65;;;26.20;;
52948;SDS011;38812;50.942;3.644;2022-10-14T02:28:18;39.45;;;26.85;;
52948;SDS011;38812;50.942;3.644;2022-10-14T02:30:49;39.20;;;25.88;;
52948;SDS011;38812;50.942;3.644;2022-10-14T02:33:19;36.85;;;25.70;;
52948;SDS011;38812;50.942;3.644;2022-10-14T02:35:47;43.47;;;28.48;;
52948;SDS011;38812;50.942;3.644;2022-10-14T02:38:14;38.45;;;25.90;;
52948;SDS011;38812;50.942;3.644;2022-10-14T02:40:46;41.08;;;26.23;;
52948;SDS011;38812;50.942;3.644;2022-10-14T02:43:14;41.85;;;26.05;;
52948;SDS011;38812;50.942;3.644;2022-10-14T02:45:41;41.08;;;25.92;;
52948;SDS011;38812;50.942;3.644;2022-10-14T02:48:08;42.20;;;25.70;;
52948;SDS011;38812;50.942;3.644;2022-10-14T02:50:34;42.63;;;25.73;;
52948;SDS011;38812;50.942;3.644;2022-10-14T02:53:00;38.50;;;25.60;;
52948;SDS011;38812;50.942;3.644;2022-10-14T02:55:25;38.28;;;26.88;;
52948;SDS011;38812;50.942;3.644;2022-10-14T02:57:51;40.10;;;26.67;;
52948;SDS011;38812;50.942;3.644;2022-10-14T03:00:16;36.20;;;25.42;;
52948;SDS011;38812;50.942;3.644;2022-10-14T03:02:42;38.85;;;25.42;;
52948;SDS011;38812;50.942;3.644;2022-10-14T03:05:08;38.90;;;26.05;;
52948;SDS011;38812;50.942;3.644;2022-10-14T03:07:34;38.67;;;25.27;;
52948;SDS011;38812;50.942;3.644;2022-10-14T03:09:59;46.28;;;26.73;;
52948;SDS011;38812;50.942;3.644;2022-10-14T03:12:24;36.80;;;24.27;;
52948;SDS011;38812;50.942;3.644;2022-10-14T03:14:50;40.25;;;24.83;;
52948;SDS011;38812;50.942;3.644;2022-10-14T03:17:15;44.17;;;26.00;;
52948;SDS011;38812;50.942;3.644;2022-10-14T03:19:41;41.60;;;25.73;;
52948;SDS011;38812;50.942;3.644;2022-10-14T03:22:06;37.55;;;24.35;;
52948;SDS011;38812;50.942;3.644;2022-10-14T03:24:32;36.60;;;24.85;;
52948;SDS011;38812;50.942;3.644;2022-10-14T03:26:57;35.17;;;24.17;;
52948;SDS011;38812;50.942;3.644;2022-10-14T03:29:22;41.90;;;25.42;;
52948;SDS011;38812;50.942;3.644;2022-10-14T03:31:48;38.72;;;23.45;;
52948;SDS011;38812;50.942;3.644;2022-10-14T03:34:13;42.80;;;26.13;;
52948;SDS011;38812;50.942;3.644;2022-10-14T03:36:39;38.28;;;24.40;;
52948;SDS011;38812;50.942;3.644;2022-10-14T03:39:04;45.22;;;26.50;;
52948;SDS011;38812;50.942;3.644;2022-10-14T03:41:29;39.80;;;25.00;;
52948;SDS011;38812;50.942;3.644;2022-10-14T03:43:55;44.92;;;25.52;;
52948;SDS011;38812;50.942;3.644;2022-10-14T03:46:20;46.60;;;25.27;;
52948;SDS011;38812;50.942;3.644;2022-10-14T03:48:45;40.17;;;24.35;;
52948;SDS011;38812;50.942;3.644;2022-10-14T03:51:11;43.80;;;24.88;;
52948;SDS011;38812;50.942;3.644;2022-10-14T03:53:36;40.33;;;25.10;;
52948;SDS011;38812;50.942;3.644;2022-10-14T03:56:02;42.72;;;24.10;;
52948;SDS011;38812;50.942;3.644;2022-10-14T03:58:27;46.70;;;23.73;;
52948;SDS011;38812;50.942;3.644;2022-10-14T04:00:53;39.17;;;23.30;;
52948;SDS011;38812;50.942;3.644;2022-10-14T04:03:18;42.08;;;24.45;;
52948;SDS011;38812;50.942;3.644;2022-10-14T04:05:43;45.17;;;23.58;;
52948;SDS011;38812;50.942;3.644;2022-10-14T04:08:09;42.53;;;24.63;;
52948;SDS011;38812;50.942;3.644;2022-10-14T04:10:34;40.63;;;24.70;;
52948;SDS011;38812;50.942;3.644;2022-10-14T04:12:59;48.53;;;25.35;;
52948;SDS011;38812;50.942;3.644;2022-10-14T04:15:25;45.60;;;25.90;;
52948;SDS011;38812;50.942;3.644;2022-10-14T04:17:51;44.55;;;24.52;;
52948;SDS011;38812;50.942;3.644;2022-10-14T04:20:17;45.45;;;25.52;;
52948;SDS011;38812;50.942;3.644;2022-10-14T04:22:42;51.38;;;26.30;;
52948;SDS011;38812;50.942;3.644;2022-10-14T04:25:08;48.65;;;25.15;;
52948;SDS011;38812;50.942;3.644;2022-10-14T04:27:33;47.00;;;25.98;;
52948;SDS011;38812;50.942;3.644;2022-10-14T04:29:59;50.72;;;27.20;;
52948;SDS011;38812;50.942;3.644;2022-10-14T04:32:24;50.20;;;24.73;;
52948;SDS011;38812;50.942;3.644;2022-10-14T04:34:49;56.00;;;28.20;;
52948;SDS011;38812;50.942;3.644;2022-10-14T04:37:15;51.72;;;27.50;;
52948;SDS011;38812;50.942;3.644;2022-10-14T04:39:40;53.92;;;27.55;;
52948;SDS011;38812;50.942;3.644;2022-10-14T04:42:06;49.17;;;25.70;;
52948;SDS011;38812;50.942;3.644;2022-10-14T04:44:31;48.45;;;25.60;;
52948;SDS011;38812;50.942;3.644;2022-10-14T04:46:57;54.53;;;27.27;;
52948;SDS011;38812;50.942;3.644;2022-10-14T04:49:22;46.45;;;25.95;;
52948;SDS011;38812;50.942;3.644;2022-10-14T04:51:48;50.28;;;25.40;;
52948;SDS011;38812;50.942;3.644;2022-10-14T04:54:13;51.58;;;27.05;;
52948;SDS011;38812;50.942;3.644;2022-10-14T04:56:38;51.08;;;25.90;;
52948;SDS011;38812;50.942;3.644;2022-10-14T04:59:04;39.97;;;22.27;;
52948;SDS011;38812;50.942;3.644;2022-10-14T05:01:30;47.65;;;25.40;;
52948;SDS011;38812;50.942;3.644;2022-10-14T05:03:56;45.80;;;25.83;;
52948;SDS011;38812;50.942;3.644;2022-10-14T05:06:21;51.33;;;26.65;;
52948;SDS011;38812;50.942;3.644;2022-10-14T05:08:46;43.40;;;25.27;;
52948;SDS011;38812;50.942;3.644;2022-10-14T05:11:12;49.05;;;26.25;;
52948;SDS011;38812;50.942;3.644;2022-10-14T05:13:37;45.55;;;25.60;;
52948;SDS011;38812;50.942;3.644;2022-10-14T05:16:03;39.58;;;24.65;;
52948;SDS011;38812;50.942;3.644;2022-10-14T05:18:28;41.10;;;22.50;;
52948;SDS011;38812;50.942;3.644;2022-10-14T05:20:56;42.72;;;24.77;;
52948;SDS011;38812;50.942;3.644;2022-10-14T05:23:22;39.00;;;23.15;;
52948;SDS011;38812;50.942;3.644;2022-10-14T05:25:47;37.80;;;20.27;;
52948;SDS011;38812;50.942;3.644;2022-10-14T05:28:13;33.58;;;18.88;;
52948;SDS011;38812;50.942;3.644;2022-10-14T05:30:38;33.78;;;17.73;;
52948;SDS011;38812;50.942;3.644;2022-10-14T05:33:03;27.33;;;17.00;;
52948;SDS011;38812;50.942;3.644;2022-10-14T05:35:29;26.63;;;16.60;;
52948;SDS011;38812;50.942;3.644;2022-10-14T05:37:55;26.50;;;16.15;;
52948;SDS011;38812;50.942;3.644;2022-10-14T05:40:21;25.77;;;14.85;;
52948;SDS011;38812;50.942;3.644;2022-10-14T05:42:48;23.45;;;14.70;;
52948;SDS011;38812;50.942;3.644;2022-10-14T05:45:13;20.38;;;13.38;;
52948;SDS011;38812;50.942;3.644;2022-10-14T05:47:38;22.70;;;13.43;;
52948;SDS011;38812;50.942;3.644;2022-10-14T05:50:04;18.65;;;13.18;;
52948;SDS011;38812;50.942;3.644;2022-10-14T05:52:30;21.02;;;13.43;;
52948;SDS011;38812;50.942;3.644;2022-10-14T05:54:56;19.92;;;14.00;;
52948;SDS011;38812;50.942;3.644;2022-10-14T05:57:22;26.33;;;14.60;;
52948;SDS011;38812;50.942;3.644;2022-10-14T05:59:47;19.70;;;13.55;;
52948;SDS011;38812;50.942;3.644;2022-10-14T06:02:12;25.48;;;14.75;;
52948;SDS011;38812;50.942;3.644;2022-10-14T06:04:38;19.33;;;13.48;;
52948;SDS011;38812;50.942;3.644;2022-10-14T06:07:06;22.45;;;13.60;;
52948;SDS011;38812;50.942;3.644;2022-10-14T06:09:33;20.48;;;13.75;;
52948;SDS011;38812;50.942;3.644;2022-10-14T06:11:58;23.27;;;13.18;;
52948;SDS011;38812;50.942;3.644;2022-10-14T06:14:23;20.00;;;13.27;;
52948;SDS011;38812;50.942;3.644;2022-10-14T06:16:49;19.95;;;14.55;;
52948;SDS011;38812;50.942;3.644;2022-10-14T06:19:15;24.88;;;14.32;;
52948;SDS011;38812;50.942;3.644;2022-10-14T06:21:40;21.05;;;13.15;;
52948;SDS011;38812;50.942;3.644;2022-10-14T06:24:06;20.75;;;13.68;;
52948;SDS011;38812;50.942;3.644;2022-10-14T06:26:31;19.73;;;12.90;;
52948;SDS011;38812;50.942;3.644;2022-10-14T06:28:57;20.65;;;13.23;;
52948;SDS011;38812;50.942;3.644;2022-10-14T06:31:22;18.38;;;12.35;;
52948;SDS011;38812;50.942;3.644;2022-10-14T06:33:48;17.33;;;11.93;;
52948;SDS011;38812;50.942;3.644;2022-10-14T06:36:13;16.58;;;11.90;;
52948;SDS011;38812;50.942;3.644;2022-10-14T06:38:38;17.52;;;11.23;;
52948;SDS011;38812;50.942;3.644;2022-10-14T06:41:04;15.68;;;12.05;;
52948;SDS011;38812;50.942;3.644;2022-10-14T06:43:29;16.98;;;11.55;;
52948;SDS011;38812;50.942;3.644;2022-10-14T06:45:55;16.95;;;11.95;;
52948;SDS011;38812;50.942;3.644;2022-10-14T06:48:21;14.50;;;10.60;;
52948;SDS011;38812;50.942;3.644;2022-10-14T06:50:47;19.67;;;11.52;;
52948;SDS011;38812;50.942;3.644;2022-10-14T06:53:12;17.52;;;10.05;;
52948;SDS011;38812;50.942;3.644;2022-10-14T06:55:37;11.88;;;9.73;;
52948;SDS011;38812;50.942;3.644;2022-10-14T06:58:03;11.90;;;9.57;;
52948;SDS011;38812;50.942;3.644;2022-10-14T07:00:28;14.52;;;8.80;;
52948;SDS011;38812;50.942;3.644;2022-10-14T07:02:53;13.60;;;9.13;;
52948;SDS011;38812;50.942;3.644;2022-10-14T07:05:19;13.70;;;8.77;;
52948;SDS011;38812;50.942;3.644;2022-10-14T07:07:44;14.35;;;8.13;;
52948;SDS011;38812;50.942;3.644;2022-10-14T07:10:10;10.70;;;8.15;;
52948;SDS011;38812;50.942;3.644;2022-10-14T07:12:35;9.52;;;8.15;;
52948;SDS011;38812;50.942;3.644;2022-10-14T07:15:00;15.70;;;8.70;;
52948;SDS011;38812;50.942;3.644;2022-10-14T07:17:26;15.07;;;8.23;;
52948;SDS011;38812;50.942;3.644;2022-10-14T07:19:51;15.77;;;8.40;;
52948;SDS011;38812;50.942;3.644;2022-10-14T07:22:16;11.30;;;8.13;;
52948;SDS011;38812;50.942;3.644;2022-10-14T07:24:42;12.13;;;8.20;;
52948;SDS011;38812;50.942;3.644;2022-10-14T07:27:08;9.57;;;7.78;;
52948;SDS011;38812;50.942;3.644;2022-10-14T07:29:34;15.27;;;8.45;;
52948;SDS011;38812;50.942;3.644;2022-10-14T07:32:00;12.38;;;8.23;;
52948;SDS011;38812;50.942;3.644;2022-10-14T07:34:26;11.75;;;8.25;;
52948;SDS011;38812;50.942;3.644;2022-10-14T07:36:51;11.32;;;8.20;;
52948;SDS011;38812;50.942;3.644;2022-10-14T07:39:17;10.40;;;8.15;;
52948;SDS011;38812;50.942;3.644;2022-10-14T07:41:42;13.40;;;8.27;;
52948;SDS011;38812;50.942;3.644;2022-10-14T07:44:09;12.52;;;7.93;;
52948;SDS011;38812;50.942;3.644;2022-10-14T07:46:38;10.63;;;8.32;;
52948;SDS011;38812;50.942;3.644;2022-10-14T07:49:14;12.05;;;8.07;;
52948;SDS011;38812;50.942;3.644;2022-10-14T07:51:41;10.05;;;7.60;;
52948;SDS011;38812;50.942;3.644;2022-10-14T07:54:09;18.98;;;9.52;;
52948;SDS011;38812;50.942;3.644;2022-10-14T07:56:38;12.70;;;9.05;;
52948;SDS011;38812;50.942;3.644;2022-10-14T07:59:05;11.68;;;8.43;;
52948;SDS011;38812;50.942;3.644;2022-10-14T08:01:31;16.25;;;10.10;;
52948;SDS011;38812;50.942;3.644;2022-10-14T08:03:57;13.95;;;9.10;;
52948;SDS011;38812;50.942;3.644;2022-10-14T08:06:22;12.38;;;9.40;;
52948;SDS011;38812;50.942;3.644;2022-10-14T08:08:48;14.75;;;9.60;;
52948;SDS011;38812;50.942;3.644;2022-10-14T08:11:17;11.43;;;9.02;;
52948;SDS011;38812;50.942;3.644;2022-10-14T08:13:50;10.60;;;8.57;;
52948;SDS011;38812;50.942;3.644;2022-10-14T08:16:20;13.15;;;9.48;;
52948;SDS011;38812;50.942;3.644;2022-10-14T08:18:48;13.20;;;9.38;;
52948;SDS011;38812;50.942;3.644;2022-10-14T08:21:14;13.15;;;9.80;;
52948;SDS011;38812;50.942;3.644;2022-10-14T08:23:40;12.70;;;8.27;;
52948;SDS011;38812;50.942;3.644;2022-10-14T08:26:49;11.95;;;8.80;;
52948;SDS011;38812;50.942;3.644;2022-10-14T08:29:03;10.82;;;8.07;;
52948;SDS011;38812;50.942;3.644;2022-10-14T08:31:29;12.93;;;7.90;;
52948;SDS011;38812;50.942;3.644;2022-10-14T08:33:55;10.48;;;7.93;;
52948;SDS011;38812;50.942;3.644;2022-10-14T08:36:21;10.73;;;7.35;;
52948;SDS011;38812;50.942;3.644;2022-10-14T08:38:47;13.73;;;6.88;;
52948;SDS011;38812;50.942;3.644;2022-10-14T08:41:18;8.30;;;6.90;;
52948;SDS011;38812;50.942;3.644;2022-10-14T08:46:20;8.70;;;6.00;;
52948;SDS011;38812;50.942;3.644;2022-10-14T08:48:52;6.78;;;6.00;;
52948;SDS011;38812;50.942;3.644;2022-10-14T08:51:26;9.50;;;6.10;;
52948;SDS011;38812;50.942;3.644;2022-10-14T08:53:54;15.30;;;7.35;;
52948;SDS011;38812;50.942;3.644;2022-10-14T08:56:29;7.90;;;6.13;;
52948;SDS011;38812;50.942;3.644;2022-10-14T08:58:55;9.15;;;6.20;;
52948;SDS011;38812;50.942;3.644;2022-10-14T09:01:27;7.13;;;5.47;;
52948;SDS011;38812;50.942;3.644;2022-10-14T09:03:56;10.48;;;5.47;;
52948;SDS011;38812;50.942;3.644;2022-10-14T09:06:27;6.45;;;5.43;;
52948;SDS011;38812;50.942;3.644;2022-10-14T09:09:04;5.80;;;5.20;;
52948;SDS011;38812;50.942;3.644;2022-10-14T09:11:38;7.18;;;6.10;;
52948;SDS011;38812;50.942;3.644;2022-10-14T09:14:07;6.50;;;5.25;;
52948;SDS011;38812;50.942;3.644;2022-10-14T09:16:37;9.25;;;6.35;;
52948;SDS011;38812;50.942;3.644;2022-10-14T09:19:25;8.43;;;6.38;;
52948;SDS011;38812;50.942;3.644;2022-10-14T09:22:01;10.40;;;6.82;;
52948;SDS011;38812;50.942;3.644;2022-10-14T09:24:27;8.60;;;7.18;;
52948;SDS011;38812;50.942;3.644;2022-10-14T09:27:04;9.52;;;7.35;;
52948;SDS011;38812;50.942;3.644;2022-10-14T09:29:41;11.43;;;7.60;;
52948;SDS011;38812;50.942;3.644;2022-10-14T09:32:08;7.72;;;6.57;;
52948;SDS011;38812;50.942;3.644;2022-10-14T09:34:47;8.30;;;7.40;;
52948;SDS011;38812;50.942;3.644;2022-10-14T09:37:25;9.82;;;7.70;;
52948;SDS011;38812;50.942;3.644;2022-10-14T09:40:02;11.70;;;7.97;;
52948;SDS011;38812;50.942;3.644;2022-10-14T09:48:57;10.90;;;7.07;;
52948;SDS011;38812;50.942;3.644;2022-10-14T09:51:25;8.27;;;7.38;;
52948;SDS011;38812;50.942;3.644;2022-10-14T09:53:55;10.75;;;8.05;;
52948;SDS011;38812;50.942;3.644;2022-10-14T09:56:29;10.07;;;7.22;;
52948;SDS011;38812;50.942;3.644;2022-10-14T09:58:56;8.55;;;7.65;;
52948;SDS011;38812;50.942;3.644;2022-10-14T10:01:26;11.15;;;8.35;;
52948;SDS011;38812;50.942;3.644;2022-10-14T10:06:52;10.90;;;7.97;;
52948;SDS011;38812;50.942;3.644;2022-10-14T10:09:19;11.32;;;8.57;;
52948;SDS011;38812;50.942;3.644;2022-10-14T10:11:45;8.32;;;7.35;;
52948;SDS011;38812;50.942;3.644;2022-10-14T10:14:16;8.93;;;8.02;;
52948;SDS011;38812;50.942;3.644;2022-10-14T10:16:44;12.32;;;8.20;;
52948;SDS011;38812;50.942;3.644;2022-10-14T10:19:23;10.35;;;9.25;;
52948;SDS011;38812;50.942;3.644;2022-10-14T10:22:42;11.10;;;9.57;;
52948;SDS011;38812;50.942;3.644;2022-10-14T10:24:47;12.98;;;9.55;;
52948;SDS011;38812;50.942;3.644;2022-10-14T10:27:22;17.65;;;10.15;;
52948;SDS011;38812;50.942;3.644;2022-10-14T10:29:51;10.23;;;9.13;;
52948;SDS011;38812;50.942;3.644;2022-10-14T10:43:05;18.95;;;11.43;;
52948;SDS011;38812;50.942;3.644;2022-10-14T10:45:56;17.70;;;11.25;;
52948;SDS011;38812;50.942;3.644;2022-10-14T10:51:30;14.90;;;13.38;;
52948;SDS011;38812;50.942;3.644;2022-10-14T10:54:19;17.00;;;13.27;;
52948;SDS011;38812;50.942;3.644;2022-10-14T10:56:49;14.48;;;12.98;;
52948;SDS011;38812;50.942;3.644;2022-10-14T11:07:37;15.20;;;12.27;;
52948;SDS011;38812;50.942;3.644;2022-10-14T11:10:32;14.68;;;12.43;;
52948;SDS011;38812;50.942;3.644;2022-10-14T11:16:05;16.08;;;12.65;;
52948;SDS011;38812;50.942;3.644;2022-10-14T11:18:42;14.85;;;13.25;;
52948;SDS011;38812;50.942;3.644;2022-10-14T11:27:36;14.73;;;12.90;;
52948;SDS011;38812;50.942;3.644;2022-10-14T11:30:18;14.27;;;12.70;;
52948;SDS011;38812;50.942;3.644;2022-10-14T11:36:03;14.40;;;12.90;;
52948;SDS011;38812;50.942;3.644;2022-10-14T11:38:48;15.85;;;13.52;;
52948;SDS011;38812;50.942;3.644;2022-10-14T11:44:04;16.15;;;14.27;;
52948;SDS011;38812;50.942;3.644;2022-10-14T11:46:40;18.85;;;14.55;;
52948;SDS011;38812;50.942;3.644;2022-10-14T11:51:40;15.30;;;13.70;;
52948;SDS011;38812;50.942;3.644;2022-10-14T11:54:26;20.67;;;16.70;;
52948;SDS011;38812;50.942;3.644;2022-10-14T11:57:01;18.52;;;16.63;;
52948;SDS011;38812;50.942;3.644;2022-10-14T11:59:36;18.25;;;16.45;;
52948;SDS011;38812;50.942;3.644;2022-10-14T12:10:50;14.50;;;13.10;;
52948;SDS011;38812;50.942;3.644;2022-10-14T12:13:38;15.38;;;13.77;;
52948;SDS011;38812;50.942;3.644;2022-10-14T12:16:09;15.50;;;13.90;;
52948;SDS011;38812;50.942;3.644;2022-10-14T12:18:45;19.83;;;14.55;;
52948;SDS011;38812;50.942;3.644;2022-10-14T12:21:23;16.70;;;14.95;;
52948;SDS011;38812;50.942;3.644;2022-10-14T12:26:33;16.73;;;14.40;;
52948;SDS011;38812;50.942;3.644;2022-10-14T12:29:10;17.00;;;15.30;;
52948;SDS011;38812;50.942;3.644;2022-10-14T12:31:39;17.67;;;15.82;;
52948;SDS011;38812;50.942;3.644;2022-10-14T12:36:43;16.60;;;14.95;;
52948;SDS011;38812;50.942;3.644;2022-10-14T12:41:41;13.95;;;12.60;;
52948;SDS011;38812;50.942;3.644;2022-10-14T12:44:19;12.00;;;10.90;;
52948;SDS011;38812;50.942;3.644;2022-10-14T12:46:48;11.20;;;10.10;;
52948;SDS011;38812;50.942;3.644;2022-10-14T12:49:32;13.63;;;11.98;;
52948;SDS011;38812;50.942;3.644;2022-10-14T12:52:04;11.98;;;10.13;;
52948;SDS011;38812;50.942;3.644;2022-10-14T12:54:31;11.18;;;9.32;;
52948;SDS011;38812;50.942;3.644;2022-10-14T12:57:00;10.65;;;9.65;;
52948;SDS011;38812;50.942;3.644;2022-10-14T12:59:31;10.80;;;9.68;;
52948;SDS011;38812;50.942;3.644;2022-10-14T13:02:45;11.20;;;8.85;;
52948;SDS011;38812;50.942;3.644;2022-10-14T13:04:57;8.93;;;8.02;;
52948;SDS011;38812;50.942;3.644;2022-10-14T13:09:58;7.88;;;6.90;;
52948;SDS011;38812;50.942;3.644;2022-10-14T13:15:03;8.60;;;7.25;;
52948;SDS011;38812;50.942;3.644;2022-10-14T13:17:49;12.73;;;7.40;;
52948;SDS011;38812;50.942;3.644;2022-10-14T13:26:05;8.60;;;7.25;;
52948;SDS011;38812;50.942;3.644;2022-10-14T13:31:20;11.18;;;6.43;;
52948;SDS011;38812;50.942;3.644;2022-10-14T13:33:54;6.80;;;6.10;;
52948;SDS011;38812;50.942;3.644;2022-10-14T13:36:36;6.65;;;5.22;;
52948;SDS011;38812;50.942;3.644;2022-10-14T13:39:21;5.25;;;4.75;;
52948;SDS011;38812;50.942;3.644;2022-10-14T13:41:46;6.63;;;5.38;;
52948;SDS011;38812;50.942;3.644;2022-10-14T13:44:13;7.00;;;5.65;;
52948;SDS011;38812;50.942;3.644;2022-10-14T13:46:42;9.88;;;6.47;;
52948;SDS011;38812;50.942;3.644;2022-10-14T13:49:12;7.68;;;6.50;;
52948;SDS011;38812;50.942;3.644;2022-10-14T13:51:42;10.10;;;7.65;;
52948;SDS011;38812;50.942;3.644;2022-10-14T13:54:28;8.80;;;7.38;;
52948;SDS011;38812;50.942;3.644;2022-10-14T13:57:11;11.55;;;8.23;;
52948;SDS011;38812;50.942;3.644;2022-10-14T13:59:40;19.55;;;9.40;;
52948;SDS011;38812;50.942;3.644;2022-10-14T14:04:40;17.42;;;10.50;;
52948;SDS011;38812;50.942;3.644;2022-10-14T14:07:12;15.68;;;11.77;;
52948;SDS011;38812;50.942;3.644;2022-10-14T14:09:44;14.25;;;12.45;;
52948;SDS011;38812;50.942;3.644;2022-10-14T14:12:15;18.65;;;12.85;;
52948;SDS011;38812;50.942;3.644;2022-10-14T14:14:42;18.42;;;12.27;;
52948;SDS011;38812;50.942;3.644;2022-10-14T14:17:12;18.55;;;13.15;;
52948;SDS011;38812;50.942;3.644;2022-10-14T14:19:44;13.32;;;11.02;;
52948;SDS011;38812;50.942;3.644;2022-10-14T14:22:21;15.85;;;12.35;;
52948;SDS011;38812;50.942;3.644;2022-10-14T14:27:46;13.40;;;10.05;;
52948;SDS011;38812;50.942;3.644;2022-10-14T14:30:27;13.30;;;9.68;;
52948;SDS011;38812;50.942;3.644;2022-10-14T14:32:56;13.80;;;9.40;;
52948;SDS011;38812;50.942;3.644;2022-10-14T14:35:23;11.90;;;9.43;;
52948;SDS011;38812;50.942;3.644;2022-10-14T14:37:49;10.38;;;8.55;;
52948;SDS011;38812;50.942;3.644;2022-10-14T14:42:48;11.73;;;8.95;;
52948;SDS011;38812;50.942;3.644;2022-10-14T14:47:55;10.38;;;7.57;;
52948;SDS011;38812;50.942;3.644;2022-10-14T14:50:25;14.70;;;7.80;;
52948;SDS011;38812;50.942;3.644;2022-10-14T14:52:52;17.73;;;9.52;;
52948;SDS011;38812;50.942;3.644;2022-10-14T14:57:57;14.75;;;8.45;;
52948;SDS011;38812;50.942;3.644;2022-10-14T15:00:24;17.38;;;9.45;;
52948;SDS011;38812;50.942;3.644;2022-10-14T15:02:50;13.35;;;9.35;;
52948;SDS011;38812;50.942;3.644;2022-10-14T15:05:23;15.02;;;9.93;;
52948;SDS011;38812;50.942;3.644;2022-10-14T15:07:48;12.70;;;8.90;;
52948;SDS011;38812;50.942;3.644;2022-10-14T15:10:21;15.50;;;9.63;;
52948;SDS011;38812;50.942;3.644;2022-10-14T15:12:51;14.77;;;9.60;;
52948;SDS011;38812;50.942;3.644;2022-10-14T15:20:38;12.68;;;8.80;;
52948;SDS011;38812;50.942;3.644;2022-10-14T15:26:02;14.38;;;8.30;;
52948;SDS011;38812;50.942;3.644;2022-10-14T15:28:28;14.98;;;8.90;;
52948;SDS011;38812;50.942;3.644;2022-10-14T15:30:55;15.07;;;8.35;;
52948;SDS011;38812;50.942;3.644;2022-10-14T15:33:22;13.48;;;8.48;;
52948;SDS011;38812;50.942;3.644;2022-10-14T15:35:56;9.95;;;7.43;;
52948;SDS011;38812;50.942;3.644;2022-10-14T15:38:26;12.93;;;8.02;;
52948;SDS011;38812;50.942;3.644;2022-10-14T15:40:52;12.45;;;7.78;;
52948;SDS011;38812;50.942;3.644;2022-10-14T15:43:18;12.90;;;8.63;;
52948;SDS011;38812;50.942;3.644;2022-10-14T15:45:49;12.55;;;8.27;;
52948;SDS011;38812;50.942;3.644;2022-10-14T15:48:35;12.70;;;8.57;;
52948;SDS011;38812;50.942;3.644;2022-10-14T15:51:02;11.15;;;8.68;;
52948;SDS011;38812;50.942;3.644;2022-10-14T15:53:28;11.07;;;8.02;;
52948;SDS011;38812;50.942;3.644;2022-10-14T15:55:53;12.07;;;7.38;;
52948;SDS011;38812;50.942;3.644;2022-10-14T15:58:19;11.30;;;7.47;;
52948;SDS011;38812;50.942;3.644;2022-10-14T16:00:44;9.20;;;7.57;;
52948;SDS011;38812;50.942;3.644;2022-10-14T16:03:11;12.48;;;7.97;;
52948;SDS011;38812;50.942;3.644;2022-10-14T16:05:37;8.88;;;7.05;;
52948;SDS011;38812;50.942;3.644;2022-10-14T16:08:04;13.38;;;7.82;;
52948;SDS011;38812;50.942;3.644;2022-10-14T16:10:36;15.63;;;6.93;;
52948;SDS011;38812;50.942;3.644;2022-10-14T16:13:01;13.23;;;8.07;;
52948;SDS011;38812;50.942;3.644;2022-10-14T16:15:38;11.27;;;7.55;;
52948;SDS011;38812;50.942;3.644;2022-10-14T16:18:12;13.30;;;7.20;;
52948;SDS011;38812;50.942;3.644;2022-10-14T16:20:37;12.00;;;7.60;;
52948;SDS011;38812;50.942;3.644;2022-10-14T16:23:03;10.07;;;7.70;;
52948;SDS011;38812;50.942;3.644;2022-10-14T16:25:33;11.77;;;7.15;;
52948;SDS011;38812;50.942;3.644;2022-10-14T16:28:03;11.10;;;7.63;;
52948;SDS011;38812;50.942;3.644;2022-10-14T16:30:31;9.63;;;6.97;;
52948;SDS011;38812;50.942;3.644;2022-10-14T16:33:01;9.75;;;7.43;;
52948;SDS011;38812;50.942;3.644;2022-10-14T16:35:27;12.27;;;7.82;;
52948;SDS011;38812;50.942;3.644;2022-10-14T16:37:53;17.00;;;9.10;;
52948;SDS011;38812;50.942;3.644;2022-10-14T16:40:19;9.73;;;7.30;;
52948;SDS011;38812;50.942;3.644;2022-10-14T16:42:45;14.75;;;9.50;;
52948;SDS011;38812;50.942;3.644;2022-10-14T16:45:10;15.48;;;10.30;;